createdAt,value
2023-04-02T00:00:57.332Z,84.47
2023-04-02T00:03:34.799Z,84.56
2023-04-02T00:06:02.537Z,84.60
2023-04-02T00:08:30.007Z,84.67
2023-04-02T00:10:57.632Z,84.63
2023-04-02T00:13:25.344Z,84.65
2023-04-02T00:15:52.907Z,84.71
2023-04-02T00:18:20.677Z,84.54
2023-04-02T00:20:48.271Z,84.50
2023-04-02T00:23:15.963Z,84.54
2023-04-02T00:25:45.385Z,84.49
2023-04-02T00:28:13.045Z,84.41
2023-04-02T00:30:40.673Z,84.30
2023-04-02T00:33:08.145Z,84.29
2023-04-02T00:35:35.966Z,84.23
2023-04-02T00:38:03.779Z,84.30
2023-04-02T00:40:31.289Z,84.37
2023-04-02T00:42:58.870Z,84.30
2023-04-02T00:45:28.655Z,84.34
2023-04-02T00:47:56.259Z,84.46
2023-04-02T00:50:23.995Z,84.53
2023-04-02T00:52:51.540Z,84.58
2023-04-02T00:55:19.024Z,84.66
2023-04-02T00:57:46.886Z,84.69
2023-04-02T01:00:15.922Z,84.70
2023-04-02T01:02:43.535Z,84.73
2023-04-02T01:05:13.639Z,84.91
2023-04-02T01:07:41.122Z,84.95
2023-04-02T01:10:09.137Z,85.11
2023-04-02T01:12:36.949Z,85.19
2023-04-02T01:15:04.519Z,85.30
2023-04-02T01:17:32.654Z,85.38
2023-04-02T01:20:01.649Z,85.37
2023-04-02T01:22:30.954Z,85.37
2023-04-02T01:24:58.674Z,85.42
2023-04-02T01:27:26.438Z,85.53
2023-04-02T01:29:55.555Z,85.63
2023-04-02T01:32:23.071Z,85.68
2023-04-02T01:34:50.918Z,85.75
2023-04-02T01:37:22.223Z,85.80
2023-04-02T01:39:49.736Z,85.70
2023-04-02T01:42:17.231Z,85.80
2023-04-02T01:44:44.748Z,85.90
2023-04-02T01:47:12.261Z,85.80
2023-04-02T01:49:40.303Z,85.88
2023-04-02T01:52:07.835Z,85.79
2023-04-02T01:54:37.829Z,85.96
2023-04-02T01:57:05.349Z,86.01
2023-04-02T01:59:33.379Z,86.13
2023-04-02T02:02:00.928Z,86.20
2023-04-02T02:04:28.488Z,86.12
2023-04-02T02:06:56.951Z,86.14
2023-04-02T02:09:24.475Z,86.35
2023-04-02T02:11:52.078Z,86.55
2023-04-02T02:14:19.586Z,86.81
2023-04-02T02:16:47.092Z,86.91
2023-04-02T02:19:14.733Z,86.94
2023-04-02T02:21:42.203Z,87.16
2023-04-02T02:24:09.652Z,87.25
2023-04-02T02:26:37.360Z,87.38
2023-04-02T02:29:04.849Z,87.50
2023-04-02T02:31:33.202Z,87.61
2023-04-02T02:34:01.026Z,87.77
2023-04-02T02:36:29.409Z,88.14
2023-04-02T02:38:56.880Z,88.15
2023-04-02T02:41:24.825Z,88.02
2023-04-02T02:43:52.316Z,87.89
2023-04-02T02:46:19.872Z,87.82
2023-04-02T02:48:47.683Z,87.68
2023-04-02T02:51:15.623Z,87.56
2023-04-02T02:53:43.249Z,87.43
2023-04-02T02:56:10.890Z,87.37
2023-04-02T02:58:38.364Z,87.29
2023-04-02T03:01:06.161Z,87.23
2023-04-02T03:03:34.377Z,87.23
2023-04-02T03:06:02.180Z,87.19
2023-04-02T03:08:29.682Z,87.17
2023-04-02T03:10:57.154Z,87.20
2023-04-02T03:13:24.655Z,87.16
2023-04-02T03:15:52.220Z,87.00
2023-04-02T03:18:19.768Z,86.88
2023-04-02T03:20:47.241Z,86.78
2023-04-02T03:23:14.708Z,86.68
2023-04-02T03:25:42.208Z,86.57
2023-04-02T03:28:09.821Z,86.49
2023-04-02T03:30:37.587Z,86.34
2023-04-02T03:33:05.250Z,86.23
2023-04-02T03:35:33.154Z,86.12
2023-04-02T03:38:00.937Z,86.04
2023-04-02T03:40:28.494Z,86.02
2023-04-02T03:42:56.169Z,85.99
2023-04-02T03:45:23.861Z,85.91
2023-04-02T03:47:51.566Z,85.87
2023-04-02T03:50:19.323Z,85.83
2023-04-02T03:52:46.928Z,85.80
2023-04-02T03:55:16.032Z,85.76
2023-04-02T03:57:43.629Z,85.70
2023-04-02T04:00:11.298Z,85.73
2023-04-02T04:02:38.851Z,85.80
2023-04-02T04:05:06.861Z,85.72
2023-04-02T04:07:34.466Z,85.72
2023-04-02T04:10:02.021Z,85.70
2023-04-02T04:12:29.576Z,85.68
2023-04-02T04:14:57.084Z,85.56
2023-04-02T04:17:24.829Z,85.42
2023-04-02T04:19:55.041Z,85.36
2023-04-02T04:22:30.491Z,85.38
2023-04-02T04:24:58.091Z,85.32
2023-04-02T04:27:25.638Z,85.46
2023-04-02T04:29:53.586Z,85.60
2023-04-02T04:32:21.149Z,85.62
2023-04-02T04:34:53.509Z,85.70
2023-04-02T04:37:21.718Z,85.66
2023-04-02T04:39:49.305Z,85.60
2023-04-02T04:42:16.812Z,85.60
2023-04-02T04:44:44.319Z,85.60
2023-04-02T04:47:11.868Z,85.69
2023-04-02T04:49:39.356Z,85.74
2023-04-02T04:52:07.112Z,85.76
2023-04-02T04:54:36.371Z,85.80
2023-04-02T04:57:04.018Z,85.80
2023-04-02T04:59:31.729Z,85.80
2023-04-02T05:01:59.251Z,85.69
2023-04-02T05:04:26.818Z,85.65
2023-04-02T05:06:54.410Z,85.68
2023-04-02T05:09:22.552Z,85.48
2023-04-02T05:11:50.021Z,85.46
2023-04-02T05:14:17.649Z,85.35
2023-04-02T05:16:45.194Z,85.23
2023-04-02T05:19:12.660Z,85.24
2023-04-02T05:21:40.166Z,85.39
2023-04-02T05:24:07.824Z,85.34
2023-04-02T05:26:35.403Z,85.33
2023-04-02T05:29:04.519Z,85.40
2023-04-02T05:31:32.909Z,85.49
2023-04-02T05:34:00.923Z,85.60
2023-04-02T05:36:29.313Z,85.60
2023-04-02T05:38:56.857Z,85.56
2023-04-02T05:41:24.509Z,85.51
2023-04-02T05:43:51.986Z,85.51
2023-04-02T05:46:19.532Z,85.51
2023-04-02T05:48:47.138Z,85.52
2023-04-02T05:51:14.625Z,85.60
2023-04-02T05:53:42.162Z,85.59
2023-04-02T05:56:09.613Z,85.60
2023-04-02T05:58:37.497Z,85.61
2023-04-02T06:01:05.091Z,85.64
2023-04-02T06:03:32.848Z,85.59
2023-04-02T06:06:00.511Z,85.49
2023-04-02T06:08:28.007Z,85.42
2023-04-02T06:10:55.500Z,85.39
2023-04-02T06:13:23.079Z,85.47
2023-04-02T06:15:50.837Z,85.46
2023-04-02T06:18:18.378Z,85.40
2023-04-02T06:20:46.184Z,85.40
2023-04-02T06:23:13.702Z,85.45
2023-04-02T06:25:41.487Z,85.40
2023-04-02T06:28:09.083Z,85.44
2023-04-02T06:30:36.631Z,85.40
2023-04-02T06:33:04.422Z,85.33
2023-04-02T06:35:32.169Z,85.30
2023-04-02T06:37:59.773Z,85.44
2023-04-02T06:40:27.300Z,85.61
2023-04-02T06:42:59.716Z,85.78
2023-04-02T06:45:27.247Z,85.94
2023-04-02T06:47:55.061Z,86.20
2023-04-02T06:50:23.345Z,86.33
2023-04-02T06:52:51.028Z,86.35
2023-04-02T06:55:18.660Z,86.30
2023-04-02T06:57:46.566Z,86.19
2023-04-02T07:00:14.895Z,86.04
2023-04-02T07:02:42.494Z,85.94
2023-04-02T07:05:10.487Z,85.85
2023-04-02T07:07:38.168Z,85.84
2023-04-02T07:10:07.069Z,85.97
2023-04-02T07:12:34.618Z,85.80
2023-04-02T07:15:02.077Z,85.80
2023-04-02T07:17:29.653Z,85.69
2023-04-02T07:19:57.466Z,85.69
2023-04-02T07:22:26.883Z,85.77
2023-04-02T07:24:54.553Z,85.35
2023-04-02T07:27:22.224Z,85.21
2023-04-02T07:29:49.720Z,85.06
2023-04-02T07:32:19.499Z,85.06
2023-04-02T07:34:49.010Z,84.74
2023-04-02T07:37:16.551Z,84.85
2023-04-02T07:39:44.086Z,84.69
2023-04-02T07:42:11.676Z,84.46
2023-04-02T07:44:39.185Z,84.31
2023-04-02T07:47:08.567Z,84.31
2023-04-02T07:49:36.218Z,84.46
2023-04-02T07:52:04.143Z,84.34
2023-04-02T07:54:31.624Z,84.29
2023-04-02T07:56:59.256Z,84.36
2023-04-02T07:59:26.856Z,84.32
2023-04-02T08:01:54.547Z,84.58
2023-04-02T08:04:22.204Z,84.77
2023-04-02T08:06:49.774Z,84.69
2023-04-02T08:09:17.254Z,84.57
2023-04-02T08:11:46.717Z,84.57
2023-04-02T08:14:14.436Z,84.46
2023-04-02T08:16:42.840Z,84.60
2023-04-02T08:19:10.447Z,84.64
2023-04-02T08:21:38.111Z,84.74
2023-04-02T08:24:05.959Z,84.83
2023-04-02T08:26:33.556Z,84.76
2023-04-02T08:29:01.080Z,84.69
2023-04-02T08:31:28.674Z,84.66
2023-04-02T08:33:57.121Z,84.72
2023-04-02T08:36:24.858Z,84.78
2023-04-02T08:38:52.468Z,84.78
2023-04-02T08:41:20.331Z,84.65
2023-04-02T08:43:48.786Z,84.62
2023-04-02T08:46:16.459Z,84.52
2023-04-02T08:48:44.232Z,84.65
2023-04-02T08:51:12.144Z,84.57
2023-04-02T08:53:40.052Z,84.33
2023-04-02T08:56:08.606Z,84.14
2023-04-02T08:58:36.338Z,84.13
2023-04-02T09:01:04.337Z,84.00
2023-04-02T09:03:32.152Z,84.06
2023-04-02T09:05:59.947Z,83.99
2023-04-02T09:08:27.484Z,83.95
2023-04-02T09:10:55.335Z,83.91
2023-04-02T09:13:22.848Z,83.87
2023-04-02T09:15:50.610Z,83.86
2023-04-02T09:18:18.427Z,83.64
2023-04-02T09:20:48.078Z,83.55
2023-04-02T09:23:15.581Z,83.58
2023-04-02T09:25:44.737Z,83.40
2023-04-02T09:28:14.014Z,83.48
2023-04-02T09:30:41.543Z,83.10
2023-04-02T09:33:09.367Z,82.63
2023-04-02T09:35:37.068Z,82.33
2023-04-02T09:38:06.155Z,82.56
2023-04-02T09:40:33.706Z,82.84
2023-04-02T09:43:01.205Z,82.90
2023-04-02T09:45:28.724Z,82.60
2023-04-02T09:47:56.489Z,82.13
2023-04-02T09:50:27.452Z,81.82
2023-04-02T09:52:55.002Z,81.73
2023-04-02T09:55:22.543Z,81.66
2023-04-02T09:57:50.511Z,81.88
2023-04-02T10:00:41.580Z,82.20
2023-04-02T10:03:05.784Z,81.65
2023-04-02T10:05:40.432Z,82.32
2023-04-02T10:08:09.010Z,83.08
2023-04-02T10:10:37.225Z,84.30
2023-04-02T10:13:05.009Z,84.19
2023-04-02T10:15:32.580Z,83.24
2023-04-02T10:18:00.432Z,84.00
2023-04-02T10:20:29.302Z,84.63
2023-04-02T10:22:58.196Z,84.92
2023-04-02T10:25:25.851Z,85.69
2023-04-02T10:27:53.430Z,85.55
2023-04-02T10:30:21.189Z,85.50
2023-04-02T10:32:48.724Z,85.12
2023-04-02T10:35:16.476Z,84.08
2023-04-02T10:37:44.015Z,84.94
2023-04-02T10:40:11.830Z,84.47
2023-04-02T10:42:39.381Z,84.49
2023-04-02T10:45:06.896Z,85.18
2023-04-02T10:47:34.468Z,85.16
2023-04-02T10:50:01.964Z,84.92
2023-04-02T10:52:29.552Z,84.97
2023-04-02T10:54:57.274Z,84.51
2023-04-02T10:57:24.788Z,84.76
2023-04-02T10:59:53.213Z,85.27
2023-04-02T11:02:20.764Z,85.61
2023-04-02T11:04:48.829Z,85.81
2023-04-02T11:07:17.314Z,85.77
2023-04-02T11:09:44.926Z,85.96
2023-04-02T11:12:12.441Z,85.84
2023-04-02T11:14:41.102Z,86.21
2023-04-02T11:17:08.591Z,86.47
2023-04-02T11:19:37.736Z,86.39
2023-04-02T11:22:06.855Z,86.27
2023-04-02T11:24:36.830Z,86.52
2023-04-02T11:27:04.315Z,86.51
2023-04-02T11:29:31.890Z,86.14
2023-04-02T11:31:59.382Z,85.90
2023-04-02T11:34:26.843Z,85.61
2023-04-02T11:36:54.333Z,85.44
2023-04-02T11:39:22.198Z,85.12
2023-04-02T11:41:49.829Z,85.17
2023-04-02T11:44:17.348Z,85.73
2023-04-02T11:46:45.601Z,86.01
2023-04-02T11:49:13.330Z,86.03
2023-04-02T11:51:40.913Z,86.64
2023-04-02T11:54:09.260Z,86.54
2023-04-02T11:56:36.755Z,86.50
2023-04-02T11:59:04.295Z,86.46
2023-04-02T12:01:31.796Z,86.31
2023-04-02T12:03:59.385Z,86.64
2023-04-02T12:06:27.161Z,86.78
2023-04-02T12:08:58.086Z,86.32
2023-04-02T12:11:25.926Z,86.18
2023-04-02T12:13:53.715Z,86.46
2023-04-02T12:16:21.348Z,86.61
2023-04-02T12:18:51.230Z,86.67
2023-04-02T12:21:18.810Z,86.24
2023-04-02T12:23:46.305Z,86.23
2023-04-02T12:26:14.447Z,86.44
2023-04-02T12:28:42.650Z,86.27
2023-04-02T12:31:10.171Z,85.95
2023-04-02T12:33:38.022Z,86.21
2023-04-02T12:36:05.781Z,86.80
2023-04-02T12:38:33.420Z,86.80
2023-04-02T12:41:01.309Z,86.38
2023-04-02T12:43:29.114Z,86.86
2023-04-02T12:45:56.743Z,86.86
2023-04-02T12:48:24.293Z,86.56
2023-04-02T12:50:52.051Z,86.08
2023-04-02T12:53:20.584Z,85.96
2023-04-02T12:55:48.560Z,86.03
2023-04-02T12:58:16.077Z,85.76
2023-04-02T13:00:43.538Z,86.00
2023-04-02T13:03:11.239Z,86.24
2023-04-02T13:05:40.330Z,85.96
2023-04-02T13:08:07.797Z,85.69
2023-04-02T13:10:35.501Z,85.56
2023-04-02T13:13:03.637Z,85.75
2023-04-02T13:15:32.031Z,85.92
2023-04-02T13:17:59.629Z,86.13
2023-04-02T13:20:27.187Z,86.32
2023-04-02T13:22:54.667Z,86.37
2023-04-02T13:25:22.216Z,86.36
2023-04-02T13:27:49.926Z,86.72
2023-04-02T13:30:17.702Z,86.69
2023-04-02T13:32:45.944Z,86.76
2023-04-02T13:35:13.517Z,86.85
2023-04-02T13:37:41.093Z,87.00
2023-04-02T13:40:09.317Z,87.21
2023-04-02T13:42:37.120Z,87.05
2023-04-02T13:45:05.007Z,87.25
2023-04-02T13:47:32.546Z,87.26
2023-04-02T13:50:00.201Z,87.53
2023-04-02T13:52:27.700Z,87.13
2023-04-02T13:54:55.197Z,87.17
2023-04-02T13:57:22.880Z,87.27
2023-04-02T13:59:50.507Z,87.13
2023-04-02T14:02:18.279Z,87.35
2023-04-02T14:04:48.696Z,87.28
2023-04-02T14:07:18.246Z,87.12
2023-04-02T14:09:47.986Z,87.39
2023-04-02T14:12:15.478Z,87.58
2023-04-02T14:14:42.959Z,87.45
2023-04-02T14:17:10.847Z,87.60
2023-04-02T14:19:38.420Z,87.49
2023-04-02T14:22:05.962Z,87.40
2023-04-02T14:24:33.541Z,87.52
2023-04-02T14:27:01.433Z,87.65
2023-04-02T14:29:29.897Z,87.42
2023-04-02T14:31:57.433Z,87.76
2023-04-02T14:34:24.921Z,87.81
2023-04-02T14:36:56.353Z,87.53
2023-04-02T14:39:23.995Z,86.93
2023-04-02T14:41:51.536Z,87.09
2023-04-02T14:44:18.987Z,87.25
2023-04-02T14:46:47.807Z,87.16
2023-04-02T14:49:15.542Z,86.82
2023-04-02T14:51:43.488Z,87.10
2023-04-02T14:54:11.236Z,86.83
2023-04-02T14:56:38.819Z,86.79
2023-04-02T14:59:06.598Z,86.92
2023-04-02T15:01:34.100Z,86.61
2023-04-02T15:04:02.360Z,86.89
2023-04-02T15:06:29.930Z,86.73
2023-04-02T15:09:08.461Z,86.99
2023-04-02T15:11:37.497Z,86.97
2023-04-02T15:14:04.982Z,86.83
2023-04-02T15:16:33.417Z,87.02
2023-04-02T15:19:01.287Z,87.33
2023-04-02T15:21:29.630Z,87.32
2023-04-02T15:23:57.552Z,86.99
2023-04-02T15:26:26.392Z,87.16
2023-04-02T15:28:53.973Z,87.51
2023-04-02T15:31:21.537Z,87.59
2023-04-02T15:33:49.060Z,88.00
2023-04-02T15:36:16.578Z,87.80
2023-04-02T15:38:44.047Z,87.24
2023-04-02T15:41:11.539Z,87.41
2023-04-02T15:43:39.056Z,87.29
2023-04-02T15:46:06.639Z,87.66
2023-04-02T15:48:34.323Z,87.78
2023-04-02T15:51:02.095Z,87.77
2023-04-02T15:53:31.272Z,87.91
2023-04-02T15:55:58.760Z,88.10
2023-04-02T15:58:26.574Z,88.15
2023-04-02T16:00:54.085Z,87.89
2023-04-02T16:03:23.023Z,87.88
2023-04-02T16:05:50.819Z,87.91
2023-04-02T16:08:18.324Z,87.62
2023-04-02T16:10:46.251Z,87.71
2023-04-02T16:13:13.909Z,87.78
2023-04-02T16:15:41.431Z,88.20
2023-04-02T16:18:08.909Z,88.43
2023-04-02T16:20:37.019Z,88.73
2023-04-02T16:23:04.649Z,88.94
2023-04-02T16:25:32.126Z,88.95
2023-04-02T16:27:59.659Z,88.90
2023-04-02T16:30:27.142Z,88.98
2023-04-02T16:32:54.694Z,89.05
2023-04-02T16:35:41.908Z,89.10
2023-04-02T16:38:09.763Z,89.09
2023-04-02T16:40:38.245Z,89.55
2023-04-02T16:43:06.273Z,89.50
2023-04-02T16:45:34.036Z,89.58
2023-04-02T16:48:01.888Z,89.68
2023-04-02T16:50:31.390Z,89.85
2023-04-02T16:53:01.896Z,89.96
2023-04-02T16:55:29.411Z,89.94
2023-04-02T16:57:56.869Z,89.65
2023-04-02T17:00:24.630Z,89.39
2023-04-02T17:02:52.211Z,89.25
2023-04-02T17:05:20.363Z,89.06
2023-04-02T17:07:48.117Z,88.82
2023-04-02T17:10:15.926Z,88.71
2023-04-02T17:12:43.733Z,88.50
2023-04-02T17:15:14.197Z,88.45
2023-04-02T17:17:52.294Z,88.34
2023-04-02T17:20:19.829Z,88.17
2023-04-02T17:22:47.733Z,88.34
2023-04-02T17:25:15.529Z,88.53
2023-04-02T17:27:43.026Z,88.54
2023-04-02T17:30:10.565Z,88.41
2023-04-02T17:32:38.209Z,88.44
2023-04-02T17:35:05.990Z,88.40
2023-04-02T17:37:33.705Z,88.26
2023-04-02T17:40:01.414Z,88.21
2023-04-02T17:42:29.112Z,87.98
2023-04-02T17:44:56.792Z,87.78
2023-04-02T17:47:25.806Z,87.82
2023-04-02T17:49:53.382Z,87.92
2023-04-02T17:52:21.010Z,87.77
2023-04-02T17:54:49.325Z,87.69
2023-04-02T17:57:16.883Z,87.82
2023-04-02T17:59:44.520Z,87.91
2023-04-02T18:02:12.452Z,88.02
2023-04-02T18:04:41.683Z,87.92
2023-04-02T18:07:09.178Z,87.89
2023-04-02T18:09:37.294Z,87.84
2023-04-02T18:12:04.770Z,87.73
2023-04-02T18:14:32.331Z,87.79
2023-04-02T18:16:59.875Z,87.84
2023-04-02T18:19:29.384Z,87.85
2023-04-02T18:21:58.382Z,88.18
2023-04-02T18:24:26.095Z,88.45
2023-04-02T18:26:53.950Z,88.44
2023-04-02T18:29:21.835Z,88.53
2023-04-02T18:31:51.467Z,88.59
2023-04-02T18:34:19.711Z,88.62
2023-04-02T18:36:47.295Z,88.77
2023-04-02T18:39:15.717Z,88.76
2023-04-02T18:41:43.326Z,88.72
2023-04-02T18:44:10.901Z,88.75
2023-04-02T18:46:39.195Z,88.77
2023-04-02T18:49:06.844Z,88.64
2023-04-02T18:51:34.483Z,88.88
2023-04-02T18:54:02.681Z,88.95
2023-04-02T18:56:30.918Z,88.85
2023-04-02T18:58:58.781Z,88.75
2023-04-02T19:01:26.661Z,88.67
2023-04-02T19:03:54.563Z,88.72
2023-04-02T19:06:22.320Z,88.69
2023-04-02T19:08:49.872Z,88.69
2023-04-02T19:11:17.803Z,88.33
2023-04-02T19:13:45.702Z,88.23
2023-04-02T19:16:13.613Z,88.35
2023-04-02T19:18:41.454Z,88.30
2023-04-02T19:21:15.233Z,88.30
2023-04-02T19:23:44.992Z,88.23
2023-04-02T19:26:12.820Z,87.96
2023-04-02T19:28:40.812Z,87.94
2023-04-02T19:31:09.292Z,87.80
2023-04-02T19:33:37.001Z,87.82
2023-04-02T19:36:04.557Z,88.14
2023-04-02T19:38:32.399Z,87.73
2023-04-02T19:41:00.538Z,87.44
2023-04-02T19:43:28.349Z,87.50
2023-04-02T19:45:56.195Z,87.59
2023-04-02T19:48:23.692Z,87.13
2023-04-02T19:50:51.364Z,87.08
2023-04-02T19:53:19.368Z,87.24
2023-04-02T19:55:47.125Z,86.95
2023-04-02T19:58:19.595Z,86.91
2023-04-02T20:00:47.659Z,86.67
2023-04-02T20:03:15.378Z,86.20
2023-04-02T20:05:42.886Z,86.40
2023-04-02T20:08:10.443Z,86.51
2023-04-02T20:10:38.130Z,86.92
2023-04-02T20:13:06.004Z,87.23
2023-04-02T20:15:33.667Z,87.31
2023-04-02T20:18:01.516Z,87.26
2023-04-02T20:20:29.315Z,87.38
2023-04-02T20:22:56.837Z,87.48
2023-04-02T20:25:24.501Z,87.41
2023-04-02T20:27:51.958Z,87.54
2023-04-02T20:30:19.446Z,87.42
2023-04-02T20:32:47.062Z,87.38
2023-04-02T20:35:14.665Z,87.48
2023-04-02T20:37:42.151Z,87.33
2023-04-02T20:40:10.163Z,87.26
2023-04-02T20:42:37.679Z,87.40
2023-04-02T20:45:06.183Z,87.49
2023-04-02T20:47:33.720Z,87.52
2023-04-02T20:50:01.548Z,87.36
2023-04-02T20:52:30.382Z,87.40
2023-04-02T20:54:58.046Z,87.29
2023-04-02T20:57:27.628Z,87.12
2023-04-02T20:59:55.371Z,87.23
2023-04-02T21:02:22.915Z,87.39
2023-04-02T21:04:50.696Z,87.58
2023-04-02T21:07:18.252Z,87.63
2023-04-02T21:09:45.952Z,87.28
2023-04-02T21:12:13.388Z,87.56
2023-04-02T21:14:41.019Z,87.56
2023-04-02T21:17:08.799Z,87.57
2023-04-02T21:19:36.494Z,87.54
2023-04-02T21:22:04.233Z,87.63
2023-04-02T21:24:31.734Z,87.45
2023-04-02T21:26:59.259Z,87.24
2023-04-02T21:29:26.744Z,86.91
2023-04-02T21:31:54.661Z,86.91
2023-04-02T21:34:22.293Z,86.95
2023-04-02T21:36:50.576Z,86.96
2023-04-02T21:39:18.172Z,86.90
2023-04-02T21:41:46.756Z,86.88
2023-04-02T21:44:14.590Z,87.07
2023-04-02T21:46:42.771Z,87.27
2023-04-02T21:49:10.322Z,87.42
2023-04-02T21:51:37.876Z,87.52
2023-04-02T21:54:05.420Z,87.53
2023-04-02T21:56:32.937Z,87.48
2023-04-02T21:59:02.121Z,87.57
2023-04-02T22:01:29.986Z,87.75
2023-04-02T22:03:57.804Z,87.79
2023-04-02T22:06:25.510Z,87.74
2023-04-02T22:08:53.092Z,87.81
2023-04-02T22:11:20.957Z,87.82
2023-04-02T22:13:48.433Z,87.36
2023-04-02T22:16:16.289Z,87.25
2023-04-02T22:18:43.911Z,87.39
2023-04-02T22:21:11.540Z,86.74
2023-04-02T22:23:39.024Z,86.74
2023-04-02T22:26:06.633Z,86.99
2023-04-02T22:28:34.267Z,87.32
2023-04-02T22:31:02.275Z,87.45
2023-04-02T22:33:32.286Z,87.62
2023-04-02T22:35:59.857Z,87.78
2023-04-02T22:38:27.528Z,87.97
2023-04-02T22:40:55.488Z,88.14
2023-04-02T22:43:22.984Z,88.11
2023-04-02T22:45:51.188Z,87.94
2023-04-02T22:48:18.678Z,88.05
2023-04-02T22:50:46.434Z,88.00
2023-04-02T22:53:15.384Z,87.94
2023-04-02T22:55:42.945Z,87.90
2023-04-02T22:58:10.566Z,87.70
2023-04-02T23:00:38.672Z,87.60
2023-04-02T23:03:06.727Z,87.93
2023-04-02T23:05:34.189Z,88.01
2023-04-02T23:08:01.706Z,88.19
2023-04-02T23:10:30.677Z,88.19
2023-04-02T23:12:58.460Z,88.32
2023-04-02T23:15:26.137Z,88.50
2023-04-02T23:17:53.657Z,88.45
2023-04-02T23:20:21.245Z,88.40
2023-04-02T23:22:48.950Z,88.42
2023-04-02T23:25:16.474Z,88.27
2023-04-02T23:27:43.990Z,88.19
2023-04-02T23:30:11.536Z,88.00
2023-04-02T23:32:39.139Z,88.08
2023-04-02T23:35:06.708Z,88.21
2023-04-02T23:37:34.212Z,88.23
2023-04-02T23:40:01.789Z,88.12
2023-04-02T23:42:29.390Z,88.14
2023-04-02T23:44:56.903Z,88.13
2023-04-02T23:47:24.376Z,87.70
2023-04-02T23:49:51.856Z,87.50
2023-04-02T23:52:19.453Z,87.28
2023-04-02T23:54:47.165Z,87.34
2023-04-02T23:57:15.932Z,87.19
2023-04-02T23:59:43.503Z,87.23
